createdAt,value
2022-10-11T00:02:01.944Z,100.00
2022-10-11T00:04:28.513Z,100.00
2022-10-11T00:06:55.186Z,100.00
2022-10-11T00:09:21.770Z,100.00
2022-10-11T00:11:48.662Z,100.00
2022-10-11T00:14:15.356Z,100.00
2022-10-11T00:16:44.428Z,100.00
2022-10-11T00:19:11.546Z,100.00
2022-10-11T00:21:38.238Z,100.00
2022-10-11T00:24:05.397Z,100.00
2022-10-11T00:26:32.140Z,100.00
2022-10-11T00:28:58.720Z,100.00
2022-10-11T00:31:25.316Z,100.00
2022-10-11T00:33:54.087Z,100.00
2022-10-11T00:36:21.571Z,100.00
2022-10-11T00:38:48.800Z,100.00
2022-10-11T00:41:16.116Z,100.00
2022-10-11T00:43:43.880Z,100.00
2022-10-11T00:46:16.132Z,100.00
2022-10-11T00:48:48.613Z,100.00
2022-10-11T00:51:32.644Z,100.00
2022-10-11T00:54:01.691Z,100.00
2022-10-11T00:56:33.418Z,100.00
2022-10-11T00:59:04.335Z,100.00
2022-10-11T01:01:31.160Z,100.00
2022-10-11T01:03:58.124Z,100.00
2022-10-11T01:18:29.418Z,100.00
2022-10-11T01:21:25.902Z,100.00
2022-10-11T01:23:58.299Z,100.00
2022-10-11T01:27:05.390Z,100.00
2022-10-11T01:29:57.536Z,100.00
2022-10-11T01:32:38.166Z,100.00
2022-10-11T01:35:20.641Z,100.00
2022-10-11T01:38:03.047Z,100.00
2022-10-11T01:40:36.146Z,100.00
2022-10-11T01:43:04.763Z,100.00
2022-10-11T01:45:33.652Z,100.00
2022-10-11T01:48:07.765Z,100.00
2022-10-11T01:50:37.005Z,100.00
2022-10-11T01:53:23.766Z,100.00
2022-10-11T01:55:55.406Z,100.00
2022-10-11T01:58:25.099Z,100.00
2022-10-11T02:01:13.235Z,100.00
2022-10-11T02:03:54.712Z,100.00
2022-10-11T02:06:59.823Z,100.00
2022-10-11T02:10:01.443Z,100.00
2022-10-11T02:12:37.638Z,100.00
2022-10-11T02:15:09.359Z,100.00
2022-10-11T02:17:40.859Z,100.00
2022-10-11T02:20:13.494Z,100.00
2022-10-11T02:22:45.939Z,100.00
2022-10-11T02:25:19.388Z,100.00
2022-10-11T02:27:48.880Z,100.00
2022-10-11T02:30:16.233Z,100.00
2022-10-11T02:32:46.592Z,100.00
2022-10-11T02:35:14.054Z,100.00
2022-10-11T02:37:46.439Z,100.00
2022-10-11T02:40:31.093Z,100.00
2022-10-11T02:43:18.024Z,100.00
2022-10-11T02:45:49.868Z,100.00
2022-10-11T02:48:17.011Z,100.00
2022-10-11T02:50:43.922Z,100.00
2022-10-11T02:53:10.805Z,100.00
2022-10-11T02:55:37.613Z,100.00
2022-10-11T02:58:04.406Z,100.00
2022-10-11T03:00:31.150Z,100.00
2022-10-11T03:02:57.731Z,100.00
2022-10-11T03:05:24.236Z,100.00
2022-10-11T03:07:50.824Z,100.00
2022-10-11T03:10:17.451Z,100.00
2022-10-11T03:12:44.095Z,100.00
2022-10-11T03:15:10.814Z,100.00
2022-10-11T03:17:37.687Z,100.00
2022-10-11T03:20:06.130Z,100.00
2022-10-11T03:22:32.745Z,100.00
2022-10-11T03:25:03.712Z,100.00
2022-10-11T03:27:31.188Z,100.00
2022-10-11T03:29:57.895Z,100.00
2022-10-11T03:32:24.630Z,100.00
2022-10-11T03:34:51.217Z,100.00
2022-10-11T03:37:18.325Z,100.00
2022-10-11T03:39:45.887Z,100.00
2022-10-11T03:42:13.553Z,100.00
2022-10-11T03:44:41.709Z,100.00
2022-10-11T03:47:08.884Z,100.00
2022-10-11T03:49:37.706Z,100.00
2022-10-11T03:52:08.019Z,100.00
2022-10-11T03:54:34.592Z,100.00
2022-10-11T03:57:01.127Z,100.00
2022-10-11T03:59:27.671Z,100.00
2022-10-11T04:01:54.372Z,100.00
2022-10-11T04:04:20.980Z,100.00
2022-10-11T04:06:47.709Z,100.00
2022-10-11T04:09:14.222Z,100.00
2022-10-11T04:11:40.807Z,100.00
2022-10-11T04:14:07.378Z,100.00
2022-10-11T04:16:35.275Z,100.00
2022-10-11T04:19:01.803Z,100.00
2022-10-11T04:21:28.445Z,100.00
2022-10-11T04:23:55.086Z,100.00
2022-10-11T04:26:21.629Z,100.00
2022-10-11T04:28:48.315Z,100.00
2022-10-11T04:31:15.239Z,100.00
2022-10-11T04:33:41.771Z,100.00
2022-10-11T04:36:08.780Z,100.00
2022-10-11T04:38:35.752Z,100.00
2022-10-11T04:41:13.706Z,100.00
2022-10-11T04:43:40.236Z,100.00
2022-10-11T04:46:07.685Z,100.00
2022-10-11T04:48:34.855Z,100.00
2022-10-11T04:51:01.554Z,100.00
2022-10-11T04:53:28.228Z,100.00
2022-10-11T04:56:09.138Z,100.00
2022-10-11T04:58:36.319Z,100.00
2022-10-11T05:01:04.261Z,100.00
2022-10-11T05:03:30.937Z,100.00
2022-10-11T05:05:59.213Z,100.00
2022-10-11T05:08:28.897Z,100.00
2022-10-11T05:11:00.992Z,100.00
2022-10-11T05:13:28.870Z,100.00
2022-10-11T05:15:55.988Z,100.00
2022-10-11T05:18:22.907Z,100.00
2022-10-11T05:20:49.852Z,100.00
2022-10-11T05:23:16.458Z,100.00
2022-10-11T05:25:43.516Z,100.00
2022-10-11T05:28:10.299Z,100.00
2022-10-11T05:30:36.923Z,100.00
2022-10-11T05:33:03.724Z,100.00
2022-10-11T05:35:30.410Z,100.00
2022-10-11T05:37:56.996Z,100.00
2022-10-11T05:40:23.535Z,100.00
2022-10-11T05:42:50.060Z,100.00
2022-10-11T05:45:16.798Z,100.00
2022-10-11T05:47:43.322Z,100.00
2022-10-11T05:50:10.144Z,100.00
2022-10-11T05:52:36.682Z,100.00
2022-10-11T05:55:04.157Z,100.00
2022-10-11T05:57:30.724Z,100.00
2022-10-11T05:59:57.542Z,100.00
2022-10-11T06:02:24.220Z,100.00
2022-10-11T06:04:51.553Z,100.00
2022-10-11T06:07:18.282Z,100.00
2022-10-11T06:09:44.892Z,100.00
2022-10-11T06:12:11.542Z,100.00
2022-10-11T06:14:38.121Z,100.00
2022-10-11T06:17:04.675Z,100.00
2022-10-11T06:19:31.487Z,100.00
2022-10-11T06:21:57.984Z,100.00
2022-10-11T06:24:24.534Z,100.00
2022-10-11T06:26:51.103Z,100.00
2022-10-11T06:29:18.022Z,100.00
2022-10-11T06:31:44.862Z,100.00
2022-10-11T06:34:11.450Z,100.00
2022-10-11T06:36:37.992Z,100.00
2022-10-11T06:39:04.620Z,100.00
2022-10-11T06:41:31.299Z,100.00
2022-10-11T06:43:58.023Z,100.00
2022-10-11T06:46:27.283Z,100.00
2022-10-11T06:48:54.802Z,100.00
2022-10-11T06:51:22.306Z,100.00
2022-10-11T06:53:59.732Z,100.00
2022-10-11T06:56:27.463Z,100.00
2022-10-11T06:58:55.018Z,100.00
2022-10-11T07:01:23.776Z,100.00
2022-10-11T07:03:52.666Z,100.00
2022-10-11T07:06:25.291Z,100.00
2022-10-11T07:08:52.433Z,100.00
2022-10-11T07:11:21.688Z,100.00
2022-10-11T07:13:54.260Z,100.00
2022-10-11T07:16:21.886Z,100.00
2022-10-11T07:18:58.731Z,100.00
2022-10-11T07:21:27.545Z,100.00
2022-10-11T07:23:54.082Z,100.00
2022-10-11T07:26:20.815Z,100.00
2022-10-11T07:28:47.882Z,100.00
2022-10-11T07:31:17.864Z,100.00
2022-10-11T07:33:45.145Z,100.00
2022-10-11T07:36:13.140Z,100.00
2022-10-11T07:38:44.321Z,100.00
2022-10-11T07:41:11.475Z,100.00
2022-10-11T07:43:38.811Z,100.00
2022-10-11T07:46:06.281Z,100.00
2022-10-11T07:48:34.877Z,100.00
2022-10-11T07:51:16.177Z,100.00
2022-10-11T07:53:45.485Z,100.00
2022-10-11T07:56:14.399Z,99.42
2022-10-11T07:58:42.187Z,99.92
2022-10-11T08:01:10.802Z,100.00
2022-10-11T08:03:38.220Z,99.50
2022-10-11T08:06:07.712Z,98.23
2022-10-11T08:08:35.895Z,99.27
2022-10-11T08:11:02.491Z,97.86
2022-10-11T08:13:29.047Z,97.18
2022-10-11T08:15:55.794Z,98.17
2022-10-11T08:18:22.533Z,97.10
2022-10-11T08:20:49.443Z,95.87
2022-10-11T08:23:17.589Z,96.77
2022-10-11T08:25:46.721Z,93.24
2022-10-11T08:28:18.027Z,94.88
2022-10-11T08:30:52.783Z,94.71
2022-10-11T08:33:21.929Z,95.19
2022-10-11T08:35:50.566Z,94.26
2022-10-11T08:38:18.437Z,94.25
2022-10-11T08:40:57.033Z,94.35
2022-10-11T08:43:52.881Z,93.25
2022-10-11T08:46:27.349Z,91.41
2022-10-11T08:48:54.976Z,93.10
2022-10-11T08:51:30.665Z,91.08
2022-10-11T08:53:57.194Z,90.15
2022-10-11T08:56:25.820Z,90.76
2022-10-11T08:59:02.126Z,91.00
2022-10-11T09:01:29.382Z,91.59
2022-10-11T09:04:00.036Z,90.44
2022-10-11T09:06:55.150Z,89.78
2022-10-11T09:09:27.783Z,90.45
2022-10-11T09:12:30.870Z,90.33
2022-10-11T09:15:10.728Z,89.35
2022-10-11T09:17:47.586Z,87.93
2022-10-11T09:20:26.419Z,88.52
2022-10-11T09:23:11.129Z,87.29
2022-10-11T09:25:54.661Z,86.22
2022-10-11T09:28:44.528Z,85.22
2022-10-11T09:31:11.747Z,86.94
2022-10-11T09:33:49.038Z,85.23
2022-10-11T09:36:37.501Z,85.41
2022-10-11T09:39:25.286Z,83.54
2022-10-11T09:42:07.866Z,83.51
2022-10-11T09:44:39.021Z,83.80
2022-10-11T09:47:07.451Z,82.39
2022-10-11T09:49:42.728Z,83.12
2022-10-11T09:52:16.691Z,80.71
2022-10-11T09:54:58.261Z,81.46
2022-10-11T09:57:27.895Z,82.53
2022-10-11T10:00:01.871Z,80.69
2022-10-11T10:02:30.051Z,80.43
2022-10-11T10:04:59.205Z,80.82
2022-10-11T10:07:26.777Z,81.31
2022-10-11T10:09:53.819Z,80.64
2022-10-11T10:12:23.899Z,78.80
2022-10-11T10:15:19.851Z,79.97
2022-10-11T10:17:51.370Z,76.16
2022-10-11T10:20:23.122Z,76.94
2022-10-11T10:22:49.920Z,78.18
2022-10-11T10:25:43.267Z,78.40
2022-10-11T10:28:27.577Z,78.65
2022-10-11T10:30:57.572Z,78.01
2022-10-11T10:33:27.402Z,77.89
2022-10-11T10:36:03.374Z,78.36
2022-10-11T10:38:37.532Z,78.34
2022-10-11T10:41:13.895Z,77.11
2022-10-11T10:43:43.132Z,78.14
2022-10-11T10:46:18.083Z,77.50
2022-10-11T10:52:03.127Z,77.97
2022-10-11T10:54:40.362Z,76.50
2022-10-11T10:57:31.291Z,76.98
2022-10-11T11:00:15.060Z,78.25
2022-10-11T11:02:44.505Z,78.15
2022-10-11T11:05:37.018Z,77.09
2022-10-11T11:08:32.732Z,76.02
2022-10-11T11:11:39.746Z,74.75
2022-10-11T11:14:26.409Z,77.25
2022-10-11T11:17:02.084Z,76.37
2022-10-11T11:19:56.668Z,73.68
2022-10-11T11:22:30.383Z,73.92
2022-10-11T11:25:07.956Z,76.12
2022-10-11T11:27:46.990Z,75.76
2022-10-11T11:30:20.444Z,73.42
2022-10-11T11:32:57.894Z,72.76
2022-10-11T11:35:38.237Z,71.08
2022-10-11T11:38:16.643Z,70.28
2022-10-11T11:40:49.236Z,72.07
2022-10-11T11:43:18.800Z,71.39
2022-10-11T11:45:51.611Z,72.96
2022-10-11T11:48:20.969Z,71.41
2022-10-11T11:51:01.858Z,69.11
2022-10-11T11:53:47.643Z,67.29
2022-10-11T11:56:41.989Z,69.63
2022-10-11T11:59:27.758Z,67.67
2022-10-11T12:02:12.681Z,67.52
2022-10-11T12:04:43.951Z,68.72
2022-10-11T12:07:17.858Z,67.52
2022-10-11T12:09:50.689Z,66.31
2022-10-11T12:12:38.214Z,64.91
2022-10-11T12:15:26.094Z,66.31
2022-10-11T12:17:58.439Z,67.61
2022-10-11T12:20:28.928Z,66.05
2022-10-11T12:23:01.449Z,62.98
2022-10-11T12:25:28.719Z,61.42
2022-10-11T12:28:01.339Z,61.83
2022-10-11T12:30:50.891Z,60.00
2022-10-11T12:33:46.210Z,55.76
2022-10-11T12:36:39.539Z,57.36
2022-10-11T12:39:21.233Z,58.62
2022-10-11T12:41:47.815Z,59.37
2022-10-11T12:44:29.537Z,61.10
2022-10-11T12:46:59.357Z,61.29
2022-10-11T12:49:37.927Z,60.34
2022-10-11T12:52:16.426Z,61.07
2022-10-11T12:55:17.805Z,59.75
2022-10-11T12:58:08.755Z,59.54
2022-10-11T13:01:04.597Z,58.19
2022-10-11T13:03:36.455Z,58.16
2022-10-11T13:06:27.619Z,56.39
2022-10-11T13:09:02.445Z,58.14
2022-10-11T13:11:46.243Z,58.02
2022-10-11T13:14:37.662Z,57.71
2022-10-11T13:17:08.374Z,59.48
2022-10-11T13:19:36.738Z,57.81
2022-10-11T13:22:07.034Z,58.77
2022-10-11T13:24:39.683Z,59.03
2022-10-11T13:27:08.007Z,58.79
2022-10-11T13:29:45.521Z,56.90
2022-10-11T13:32:19.638Z,57.52
2022-10-11T13:34:49.418Z,56.35
2022-10-11T13:37:19.327Z,57.19
2022-10-11T13:39:47.171Z,54.92
2022-10-11T13:42:16.834Z,55.61
2022-10-11T13:44:45.417Z,52.87
2022-10-11T13:47:18.426Z,54.84
2022-10-11T13:49:47.762Z,57.09
2022-10-11T13:52:23.366Z,56.98
2022-10-11T13:54:55.682Z,56.16
2022-10-11T13:57:32.778Z,57.32
2022-10-11T14:00:02.458Z,58.14
2022-10-11T14:02:29.910Z,56.92
2022-10-11T14:04:56.530Z,57.79
2022-10-11T14:07:31.863Z,57.27
2022-10-11T14:09:58.677Z,58.45
2022-10-11T14:12:31.921Z,58.43
2022-10-11T14:15:20.990Z,58.29
2022-10-11T14:17:47.688Z,58.21
2022-10-11T14:20:29.512Z,58.02
2022-10-11T14:22:59.193Z,60.67
2022-10-11T14:25:26.060Z,57.95
2022-10-11T14:27:54.432Z,60.43
2022-10-11T14:30:26.037Z,59.05
2022-10-11T14:32:56.543Z,59.37
2022-10-11T14:35:28.763Z,59.01
2022-10-11T14:37:55.406Z,57.80
2022-10-11T14:40:27.584Z,60.02
2022-10-11T14:42:54.250Z,60.03
2022-10-11T14:45:21.512Z,61.14
2022-10-11T14:47:49.022Z,61.41
2022-10-11T14:50:51.797Z,61.16
2022-10-11T14:53:18.776Z,60.48
2022-10-11T14:55:45.522Z,60.62
2022-10-11T14:58:14.220Z,61.65
2022-10-11T15:00:40.949Z,61.54
2022-10-11T15:03:08.384Z,62.63
2022-10-11T15:05:36.391Z,60.60
2022-10-11T15:08:04.571Z,61.81
2022-10-11T15:10:37.198Z,63.75
2022-10-11T15:13:05.071Z,63.12
2022-10-11T15:15:35.347Z,62.96
2022-10-11T15:18:04.710Z,62.46
2022-10-11T15:20:39.738Z,61.89
2022-10-11T15:23:09.479Z,61.93
2022-10-11T15:25:37.776Z,60.36
2022-10-11T15:28:04.627Z,63.37
2022-10-11T15:30:41.415Z,61.91
2022-10-11T15:33:09.076Z,63.08
2022-10-11T15:35:35.971Z,63.61
2022-10-11T15:38:02.558Z,65.04
2022-10-11T15:40:35.533Z,64.67
2022-10-11T15:43:02.919Z,65.37
2022-10-11T15:45:30.474Z,65.56
2022-10-11T15:47:58.136Z,65.27
2022-10-11T15:50:34.576Z,66.13
2022-10-11T15:53:02.819Z,66.22
2022-10-11T15:55:30.074Z,67.16
2022-10-11T15:57:57.243Z,66.10
2022-10-11T16:00:25.517Z,67.23
2022-10-11T16:02:53.298Z,66.63
2022-10-11T16:05:24.990Z,65.63
2022-10-11T16:07:52.863Z,66.58
2022-10-11T16:10:20.544Z,67.12
2022-10-11T16:12:47.440Z,66.98
2022-10-11T16:15:15.847Z,68.29
2022-10-11T16:17:42.382Z,67.80
2022-10-11T16:20:09.295Z,69.40
2022-10-11T16:22:36.099Z,68.85
2022-10-11T16:25:04.558Z,70.10
2022-10-11T16:27:31.708Z,69.85
2022-10-11T16:29:58.758Z,69.69
2022-10-11T16:32:25.532Z,69.79
2022-10-11T16:34:52.083Z,69.26
2022-10-11T16:37:19.022Z,69.58
2022-10-11T16:39:48.975Z,69.69
2022-10-11T16:42:15.660Z,70.29
2022-10-11T16:44:42.225Z,70.60
2022-10-11T16:47:08.900Z,70.48
2022-10-11T16:49:35.742Z,71.09
2022-10-11T16:52:04.124Z,71.88
2022-10-11T16:54:31.671Z,72.12
2022-10-11T16:56:59.511Z,72.81
2022-10-11T16:59:26.371Z,73.48
2022-10-11T17:01:52.930Z,73.41
2022-10-11T17:04:19.563Z,73.72
2022-10-11T17:06:46.320Z,73.81
2022-10-11T17:09:13.169Z,74.07
2022-10-11T17:11:40.794Z,74.18
2022-10-11T17:14:07.739Z,73.97
2022-10-11T17:16:35.258Z,74.34
2022-10-11T17:19:02.813Z,74.15
2022-10-11T17:21:29.738Z,74.98
2022-10-11T17:23:56.346Z,75.04
2022-10-11T17:26:26.355Z,74.92
2022-10-11T17:28:57.647Z,75.28
2022-10-11T17:31:24.590Z,75.10
2022-10-11T17:33:51.401Z,76.00
2022-10-11T17:36:22.510Z,75.24
2022-10-11T17:38:50.634Z,75.93
2022-10-11T17:41:18.100Z,76.36
2022-10-11T17:43:44.770Z,76.12
2022-10-11T17:46:13.670Z,76.67
2022-10-11T17:48:40.932Z,76.53
2022-10-11T17:51:12.879Z,77.11
2022-10-11T17:53:40.249Z,77.54
2022-10-11T17:56:12.294Z,77.42
2022-10-11T17:58:39.404Z,77.00
2022-10-11T18:01:09.519Z,76.73
2022-10-11T18:03:36.687Z,77.11
2022-10-11T18:06:05.703Z,76.74
2022-10-11T18:08:39.784Z,76.55
2022-10-11T18:11:12.562Z,77.49
2022-10-11T18:13:42.586Z,77.37
2022-10-11T18:16:10.873Z,77.46
2022-10-11T18:18:38.010Z,78.48
2022-10-11T18:21:04.629Z,78.03
2022-10-11T18:23:31.467Z,77.76
2022-10-11T18:25:58.329Z,77.18
2022-10-11T18:28:25.271Z,77.11
2022-10-11T18:30:53.212Z,76.78
2022-10-11T18:33:19.875Z,77.42
2022-10-11T18:35:46.602Z,76.17
2022-10-11T18:38:13.193Z,76.16
2022-10-11T18:40:44.711Z,76.15
2022-10-11T18:43:13.668Z,77.05
2022-10-11T18:45:40.205Z,76.25
2022-10-11T18:48:08.617Z,77.44
2022-10-11T18:50:35.664Z,75.88
2022-10-11T18:53:02.618Z,76.86
2022-10-11T18:55:29.223Z,76.96
2022-10-11T18:57:56.221Z,77.34
2022-10-11T19:00:40.245Z,77.62
2022-10-11T19:03:07.966Z,77.32
2022-10-11T19:05:34.469Z,76.85
2022-10-11T19:08:01.067Z,76.12
2022-10-11T19:10:28.156Z,77.10
2022-10-11T19:12:54.711Z,76.46
2022-10-11T19:15:25.236Z,76.52
2022-10-11T19:17:54.577Z,75.98
2022-10-11T19:20:21.125Z,76.35
2022-10-11T19:22:47.782Z,75.93
2022-10-11T19:25:14.513Z,75.91
2022-10-11T19:27:41.087Z,76.46
2022-10-11T19:30:08.396Z,75.02
2022-10-11T19:32:34.909Z,76.90
2022-10-11T19:35:01.560Z,76.19
2022-10-11T19:37:28.340Z,76.54
2022-10-11T19:39:54.946Z,77.18
2022-10-11T19:42:21.514Z,77.83
2022-10-11T19:44:48.135Z,77.99
2022-10-11T19:47:16.115Z,78.25
2022-10-11T19:49:42.680Z,77.99
2022-10-11T19:52:09.577Z,79.22
2022-10-11T19:54:36.184Z,78.82
2022-10-11T19:57:02.825Z,78.89
2022-10-11T19:59:29.422Z,78.83
2022-10-11T20:01:55.943Z,79.93
2022-10-11T20:04:50.426Z,78.78
2022-10-11T20:07:09.984Z,80.03
2022-10-11T20:09:36.779Z,79.78
2022-10-11T20:12:03.340Z,80.40
2022-10-11T20:14:29.951Z,80.30
2022-10-11T20:16:56.626Z,80.28
2022-10-11T20:19:30.396Z,81.49
2022-10-11T20:21:57.734Z,81.99
2022-10-11T20:24:24.501Z,82.10
2022-10-11T20:26:51.097Z,82.99
2022-10-11T20:29:17.842Z,82.63
2022-10-11T20:31:44.432Z,83.96
2022-10-11T20:34:12.389Z,84.64
2022-10-11T20:36:39.349Z,85.22
2022-10-11T20:39:06.484Z,84.85
2022-10-11T20:41:37.168Z,86.03
2022-10-11T20:44:05.175Z,87.12
2022-10-11T20:46:34.782Z,86.25
2022-10-11T20:49:04.043Z,86.94
2022-10-11T20:51:32.242Z,87.69
2022-10-11T20:54:00.527Z,87.08
2022-10-11T20:56:27.170Z,88.04
2022-10-11T20:58:56.182Z,87.74
2022-10-11T21:01:26.345Z,88.45
2022-10-11T21:03:53.362Z,88.95
2022-10-11T21:06:20.567Z,88.57
2022-10-11T21:08:47.246Z,88.69
2022-10-11T21:11:13.803Z,88.16
2022-10-11T21:13:40.918Z,88.05
2022-10-11T21:16:16.563Z,88.35
2022-10-11T21:18:43.210Z,87.84
2022-10-11T21:21:14.160Z,88.00
2022-10-11T21:23:41.702Z,89.00
2022-10-11T21:26:12.044Z,90.41
2022-10-11T21:28:39.927Z,90.29
2022-10-11T21:31:15.457Z,90.71
2022-10-11T21:33:43.360Z,90.77
2022-10-11T21:36:16.066Z,91.24
2022-10-11T21:38:43.458Z,90.40
2022-10-11T21:41:15.718Z,90.72
2022-10-11T21:43:42.330Z,91.50
2022-10-11T21:46:12.832Z,91.88
2022-10-11T21:48:40.088Z,92.21
2022-10-11T21:51:07.132Z,91.92
2022-10-11T21:53:33.952Z,91.60
2022-10-11T21:56:01.049Z,90.30
2022-10-11T21:58:28.257Z,89.96
2022-10-11T22:00:55.036Z,89.77
2022-10-11T22:03:21.962Z,88.36
2022-10-11T22:05:48.772Z,88.81
2022-10-11T22:08:16.129Z,88.06
2022-10-11T22:10:43.811Z,88.40
2022-10-11T22:13:10.967Z,89.09
2022-10-11T22:15:37.804Z,89.02
2022-10-11T22:18:04.563Z,89.20
2022-10-11T22:20:33.149Z,89.23
2022-10-11T22:22:59.882Z,89.13
2022-10-11T22:25:26.704Z,89.55
2022-10-11T22:27:53.254Z,89.22
2022-10-11T22:30:19.804Z,89.12
2022-10-11T22:32:46.598Z,88.62
2022-10-11T22:35:13.119Z,89.10
2022-10-11T22:37:39.713Z,88.40
2022-10-11T22:40:06.863Z,88.52
2022-10-11T22:42:33.451Z,88.17
2022-10-11T22:45:00.156Z,88.65
2022-10-11T22:47:26.869Z,88.39
2022-10-11T22:49:53.523Z,89.16
2022-10-11T22:52:20.128Z,89.34
2022-10-11T22:54:46.772Z,89.87
2022-10-11T22:57:13.319Z,90.29
2022-10-11T22:59:39.898Z,90.71
2022-10-11T23:02:06.606Z,90.98
2022-10-11T23:04:33.234Z,91.84
2022-10-11T23:07:04.649Z,92.49
2022-10-11T23:09:31.837Z,93.63
2022-10-11T23:11:59.496Z,94.36
2022-10-11T23:14:26.040Z,95.33
2022-10-11T23:16:53.607Z,95.72
2022-10-11T23:19:20.610Z,96.33
2022-10-11T23:21:47.234Z,96.23
2022-10-11T23:24:13.836Z,96.15
2022-10-11T23:26:40.560Z,95.89
2022-10-11T23:29:07.134Z,95.97
2022-10-11T23:31:33.776Z,95.98
2022-10-11T23:34:00.364Z,96.24
2022-10-11T23:36:27.006Z,96.67
2022-10-11T23:38:59.390Z,97.02
2022-10-11T23:41:28.471Z,96.78
2022-10-11T23:43:55.070Z,97.07
2022-10-11T23:46:22.155Z,97.21
2022-10-11T23:48:48.849Z,96.75
2022-10-11T23:51:15.637Z,97.24
2022-10-11T23:53:42.232Z,97.64
2022-10-11T23:56:10.655Z,97.95
2022-10-11T23:58:37.506Z,98.14
